Time;durP1;ratioP1;P1;durP2;ratioP2;P2;SDS_P1;SDS_P2;PMS_P1;PMS_P2;Temp;Humidity;BMP_temperature;BMP_pressure;BME280_temperature;BME280_humidity;BME280_pressure;Samples;Min_cycle;Max_cycle;Signal;HPM_P1;HPM_P2
2021/01/18 00:00:08;;;;;;;25.00;4.43;;;;;;;;;;5066374;28;20033;-78
2021/01/18 00:02:34;;;;;;;22.60;4.10;;;;;;;;;;5067049;28;20063;-78
2021/01/18 00:05:00;;;;;;;27.98;4.20;;;;;;;;;;5068406;28;20050;-78
2021/01/18 00:07:26;;;;;;;28.85;5.72;;;;;;;;;;5071512;28;20490;-78
2021/01/18 00:09:53;;;;;;;30.42;4.32;;;;;;;;;;5083175;28;20119;-78
2021/01/18 00:12:19;;;;;;;23.48;5.05;;;;;;;;;;5076511;28;20048;-78
2021/01/18 00:14:45;;;;;;;20.77;3.10;;;;;;;;;;5068955;28;20037;-78
2021/01/18 00:17:12;;;;;;;22.40;2.95;;;;;;;;;;5084032;28;20048;-78
2021/01/18 00:19:38;;;;;;;18.27;2.95;;;;;;;;;;5080600;28;20042;-78
2021/01/18 00:22:04;;;;;;;22.75;4.22;;;;;;;;;;5075138;28;20056;-78
2021/01/18 00:24:31;;;;;;;22.45;3.13;;;;;;;;;;5078237;28;20056;-78
2021/01/18 00:26:57;;;;;;;27.90;3.75;;;;;;;;;;5080117;28;20425;-78
2021/01/18 00:29:23;;;;;;;27.27;3.70;;;;;;;;;;5076007;28;20036;-78
2021/01/18 00:31:50;;;;;;;23.15;3.13;;;;;;;;;;5076851;28;20044;-78
2021/01/18 00:34:17;;;;;;;22.08;3.20;;;;;;;;;;5080625;28;20503;-78
2021/01/18 00:36:45;;;;;;;22.00;3.13;;;;;;;;;;5076565;28;20040;-78
2021/01/18 00:39:11;;;;;;;24.23;3.85;;;;;;;;;;5083988;28;20078;-78
2021/01/18 00:41:39;;;;;;;18.85;4.38;;;;;;;;;;5075693;28;20041;-78
2021/01/18 00:44:05;;;;;;;27.80;5.07;;;;;;;;;;5074798;28;20132;-78
2021/01/18 00:46:32;;;;;;;22.63;3.13;;;;;;;;;;5079071;28;20083;-78
2021/01/18 00:48:58;;;;;;;24.35;2.95;;;;;;;;;;5076213;28;20079;-78
2021/01/18 00:51:25;;;;;;;31.70;3.25;;;;;;;;;;5075004;28;20060;-78
2021/01/18 00:53:51;;;;;;;29.48;3.63;;;;;;;;;;5084296;28;20114;-78
2021/01/18 00:56:17;;;;;;;42.88;5.50;;;;;;;;;;5075699;28;20822;-78
2021/01/18 00:58:43;;;;;;;27.60;4.00;;;;;;;;;;5081017;28;20059;-78
2021/01/18 01:01:10;;;;;;;24.67;2.72;;;;;;;;;;5079942;28;20036;-78
2021/01/18 01:03:36;;;;;;;37.13;4.95;;;;;;;;;;5084488;28;20486;-78
2021/01/18 01:06:02;;;;;;;35.00;3.78;;;;;;;;;;5086084;28;20502;-78
2021/01/18 01:08:29;;;;;;;36.60;3.50;;;;;;;;;;5088580;28;20078;-78
2021/01/18 01:10:55;;;;;;;37.17;3.38;;;;;;;;;;5082920;28;20067;-78
2021/01/18 01:13:21;;;;;;;36.80;4.30;;;;;;;;;;5090307;28;20466;-78
2021/01/18 01:15:48;;;;;;;32.33;3.78;;;;;;;;;;5085912;28;20047;-78
2021/01/18 01:18:14;;;;;;;28.83;3.85;;;;;;;;;;5089265;28;20045;-78
2021/01/18 01:20:40;;;;;;;22.42;2.72;;;;;;;;;;5086508;28;20054;-78
2021/01/18 01:23:06;;;;;;;40.90;3.95;;;;;;;;;;5084989;28;20048;-78
2021/01/18 01:25:33;;;;;;;22.13;2.95;;;;;;;;;;5088833;28;20501;-78
2021/01/18 01:27:59;;;;;;;29.00;5.57;;;;;;;;;;5084706;28;20059;-78
2021/01/18 01:30:26;;;;;;;36.13;4.93;;;;;;;;;;5084621;28;20068;-78
2021/01/18 01:32:53;;;;;;;35.60;4.10;;;;;;;;;;5085027;28;20119;-78
2021/01/18 01:35:22;;;;;;;38.50;3.40;;;;;;;;;;5084408;28;20040;-78
2021/01/18 01:37:48;;;;;;;36.35;2.85;;;;;;;;;;5079312;28;20040;-78
2021/01/18 01:40:15;;;;;;;31.83;3.53;;;;;;;;;;5079988;28;20071;-78
2021/01/18 01:42:41;;;;;;;33.10;4.60;;;;;;;;;;5089184;28;20037;-78
2021/01/18 01:45:09;;;;;;;40.60;3.40;;;;;;;;;;5086224;28;20052;-78
2021/01/18 01:47:37;;;;;;;34.40;3.03;;;;;;;;;;5097593;28;20501;-78
2021/01/18 01:50:05;;;;;;;33.08;3.08;;;;;;;;;;5088435;28;20098;-78
2021/01/18 01:52:34;;;;;;;19.58;3.10;;;;;;;;;;5092996;28;20065;-78
2021/01/18 01:55:01;;;;;;;24.08;3.20;;;;;;;;;;5088776;28;20431;-78
2021/01/18 01:57:30;;;;;;;34.30;2.53;;;;;;;;;;5086701;28;20127;-78
2021/01/18 01:59:58;;;;;;;34.03;2.95;;;;;;;;;;5087762;28;20155;-78
2021/01/18 02:02:25;;;;;;;25.10;3.72;;;;;;;;;;5066119;28;20044;-78
2021/01/18 02:04:51;;;;;;;31.33;4.80;;;;;;;;;;5076207;28;20058;-78
2021/01/18 02:07:22;;;;;;;31.40;4.68;;;;;;;;;;5071507;28;20048;-78
2021/01/18 02:09:48;;;;;;;24.48;3.22;;;;;;;;;;5077261;28;20399;-78
2021/01/18 02:12:15;;;;;;;28.52;3.90;;;;;;;;;;5085057;28;20048;-78
2021/01/18 02:14:54;;;;;;;24.52;3.30;;;;;;;;;;5124084;27;20055;-78
2021/01/18 02:17:30;;;;;;;30.83;3.80;;;;;;;;;;5084514;28;20040;-78
2021/01/18 02:20:09;;;;;;;29.13;4.40;;;;;;;;;;5084782;28;20048;-78
2021/01/18 02:22:35;;;;;;;30.23;3.70;;;;;;;;;;5087136;28;20093;-78
2021/01/18 02:25:13;;;;;;;20.00;4.00;;;;;;;;;;5087747;28;20127;-78
2021/01/18 02:27:58;;;;;;;30.23;5.28;;;;;;;;;;5087668;28;20131;-78
2021/01/18 02:30:25;;;;;;;15.73;4.20;;;;;;;;;;5085774;28;20094;-78
2021/01/18 02:33:00;;;;;;;37.78;4.57;;;;;;;;;;5087670;28;20051;-78
2021/01/18 02:35:27;;;;;;;34.33;4.30;;;;;;;;;;5082043;28;20097;-78
2021/01/18 02:38:12;;;;;;;38.25;4.65;;;;;;;;;;5080329;28;20549;-78
2021/01/18 02:40:48;;;;;;;26.33;3.80;;;;;;;;;;5086766;28;20168;-78
2021/01/18 02:43:16;;;;;;;40.03;4.55;;;;;;;;;;5089190;28;20408;-78
2021/01/18 02:45:43;;;;;;;34.83;4.05;;;;;;;;;;5087419;28;20036;-78
2021/01/18 02:48:11;;;;;;;30.10;3.65;;;;;;;;;;5087401;28;20085;-78
2021/01/18 02:50:38;;;;;;;31.30;3.72;;;;;;;;;;5083720;28;20036;-78
2021/01/18 02:53:05;;;;;;;28.17;3.60;;;;;;;;;;5092353;28;20039;-78
2021/01/18 02:55:31;;;;;;;22.20;4.25;;;;;;;;;;5085389;28;20040;-78
2021/01/18 02:58:02;;;;;;;35.17;5.68;;;;;;;;;;5085331;28;20130;-78
2021/01/18 03:00:32;;;;;;;43.40;6.35;;;;;;;;;;5077000;28;20545;-78
2021/01/18 03:03:13;;;;;;;30.05;4.70;;;;;;;;;;5074738;28;20495;-78
2021/01/18 03:05:41;;;;;;;27.10;4.97;;;;;;;;;;5085867;28;20036;-78
2021/01/18 03:08:29;;;;;;;34.03;4.30;;;;;;;;;;5083449;28;20221;-78
2021/01/18 03:11:02;;;;;;;37.47;3.88;;;;;;;;;;5082569;28;20044;-78
2021/01/18 03:13:33;;;;;;;18.00;3.28;;;;;;;;;;5076948;28;20093;-78
2021/01/18 03:16:03;;;;;;;33.17;3.60;;;;;;;;;;5074401;28;20076;-78
2021/01/18 03:18:31;;;;;;;31.40;3.83;;;;;;;;;;5081622;28;20067;-78
2021/01/18 03:20:58;;;;;;;29.52;4.32;;;;;;;;;;5076563;28;20170;-78
2021/01/18 03:23:24;;;;;;;26.35;4.70;;;;;;;;;;5074120;28;20075;-78
2021/01/18 03:25:52;;;;;;;14.75;2.55;;;;;;;;;;5078296;28;20449;-79
2021/01/18 03:28:19;;;;;;;24.73;4.13;;;;;;;;;;5081777;28;20068;-79
2021/01/18 03:30:45;;;;;;;32.15;3.92;;;;;;;;;;5082171;28;20032;-78
2021/01/18 03:33:12;;;;;;;28.98;4.85;;;;;;;;;;5077855;28;20040;-78
2021/01/18 03:35:39;;;;;;;33.28;4.50;;;;;;;;;;5079962;28;20040;-78
2021/01/18 03:38:05;;;;;;;25.05;4.10;;;;;;;;;;5079192;28;20040;-78
2021/01/18 03:40:32;;;;;;;31.17;5.03;;;;;;;;;;5086137;28;20479;-78
2021/01/18 03:43:00;;;;;;;29.48;5.65;;;;;;;;;;5084745;28;20044;-78
2021/01/18 03:45:28;;;;;;;38.72;5.10;;;;;;;;;;5079959;28;20059;-78
2021/01/18 03:47:54;;;;;;;38.97;4.65;;;;;;;;;;5084811;28;20131;-78
2021/01/18 03:50:20;;;;;;;31.00;4.88;;;;;;;;;;5075162;28;20072;-78
2021/01/18 03:52:47;;;;;;;37.15;7.35;;;;;;;;;;5078273;28;20055;-78
2021/01/18 03:55:14;;;;;;;22.17;4.88;;;;;;;;;;5078045;28;20123;-78
2021/01/18 03:57:40;;;;;;;30.92;5.43;;;;;;;;;;5085341;28;20086;-78
2021/01/18 04:00:07;;;;;;;27.38;4.75;;;;;;;;;;5080183;28;20052;-78
2021/01/18 04:02:33;;;;;;;41.80;6.35;;;;;;;;;;5065154;28;20893;-78
2021/01/18 04:05:00;;;;;;;41.75;5.90;;;;;;;;;;5077394;28;20118;-78
2021/01/18 04:07:26;;;;;;;33.22;5.75;;;;;;;;;;5066703;28;20064;-78
2021/01/18 04:09:52;;;;;;;32.95;6.68;;;;;;;;;;5060668;28;20051;-78
2021/01/18 04:12:19;;;;;;;32.60;5.18;;;;;;;;;;5075158;28;20036;-78
2021/01/18 04:14:45;;;;;;;42.55;6.15;;;;;;;;;;5107776;27;20119;-78
2021/01/18 04:17:12;;;;;;;31.60;5.88;;;;;;;;;;5076011;28;20068;-78
2021/01/18 04:19:38;;;;;;;36.78;5.60;;;;;;;;;;5079407;28;20040;-78
2021/01/18 04:22:06;;;;;;;36.92;6.63;;;;;;;;;;5070531;28;20381;-78
2021/01/18 04:24:32;;;;;;;43.05;6.57;;;;;;;;;;5079625;28;20062;-78
2021/01/18 04:26:59;;;;;;;38.33;5.53;;;;;;;;;;5079404;28;20044;-78
2021/01/18 04:29:26;;;;;;;31.25;5.47;;;;;;;;;;5081685;28;20035;-78
2021/01/18 04:31:52;;;;;;;30.42;5.95;;;;;;;;;;5080179;28;20043;-73
2021/01/18 04:34:19;;;;;;;39.22;6.10;;;;;;;;;;5077974;28;20060;-78
2021/01/18 04:36:46;;;;;;;30.13;5.57;;;;;;;;;;5075786;28;20147;-78
2021/01/18 04:39:12;;;;;;;28.92;5.80;;;;;;;;;;5080095;28;20126;-78
2021/01/18 04:41:43;;;;;;;55.80;7.65;;;;;;;;;;5081852;28;20045;-78
2021/01/18 04:44:10;;;;;;;34.38;7.82;;;;;;;;;;5079167;28;20105;-78
2021/01/18 04:46:41;;;;;;;37.53;6.70;;;;;;;;;;5076302;28;20083;-78
2021/01/18 04:49:07;;;;;;;37.05;6.32;;;;;;;;;;5079351;28;20056;-78
2021/01/18 04:51:40;;;;;;;53.30;8.13;;;;;;;;;;5078417;28;20040;-78
2021/01/18 04:54:11;;;;;;;40.35;6.40;;;;;;;;;;5082700;28;20463;-78
2021/01/18 04:56:52;;;;;;;35.67;6.05;;;;;;;;;;5075136;28;20059;-78
2021/01/18 04:59:21;;;;;;;38.88;5.97;;;;;;;;;;5083273;28;20046;-78
2021/01/18 05:01:48;;;;;;;44.05;6.10;;;;;;;;;;5078560;28;20077;-78
2021/01/18 05:04:24;;;;;;;45.42;7.10;;;;;;;;;;5081479;28;20057;-78
2021/01/18 05:06:56;;;;;;;36.83;7.43;;;;;;;;;;5081033;28;20052;-78
2021/01/18 05:09:26;;;;;;;38.47;7.03;;;;;;;;;;5077196;28;20110;-78
2021/01/18 05:11:52;;;;;;;33.63;6.45;;;;;;;;;;5082954;28;20040;-78
2021/01/18 05:14:19;;;;;;;45.85;7.90;;;;;;;;;;5087388;28;20146;-78
2021/01/18 05:16:49;;;;;;;31.52;7.75;;;;;;;;;;5074734;28;20048;-78
2021/01/18 05:19:18;;;;;;;39.08;7.47;;;;;;;;;;5069424;28;20041;-78
2021/01/18 05:21:46;;;;;;;41.03;7.60;;;;;;;;;;5074658;28;20036;-78
2021/01/18 05:24:12;;;;;;;40.92;9.15;;;;;;;;;;5076450;28;20044;-78
2021/01/18 05:26:39;;;;;;;58.33;8.68;;;;;;;;;;5078838;28;20043;-78
2021/01/18 05:29:05;;;;;;;46.35;8.73;;;;;;;;;;5083329;28;20478;-78
2021/01/18 05:31:33;;;;;;;40.35;9.73;;;;;;;;;;5082668;28;20065;-78
2021/01/18 05:33:59;;;;;;;53.53;8.27;;;;;;;;;;5082258;28;20041;-78
2021/01/18 05:36:32;;;;;;;44.50;11.75;;;;;;;;;;5079120;28;20395;-78
2021/01/18 05:39:07;;;;;;;43.50;8.75;;;;;;;;;;5081482;28;20133;-78
2021/01/18 05:41:33;;;;;;;48.05;10.45;;;;;;;;;;5074219;28;20505;-78
2021/01/18 05:44:01;;;;;;;35.85;9.70;;;;;;;;;;5079771;28;20036;-78
2021/01/18 05:46:28;;;;;;;44.38;10.02;;;;;;;;;;5080153;28;20025;-78
2021/01/18 05:48:55;;;;;;;54.65;10.32;;;;;;;;;;5085828;28;20448;-78
2021/01/18 05:51:22;;;;;;;47.05;10.27;;;;;;;;;;5084346;28;20061;-78
2021/01/18 05:53:49;;;;;;;46.55;11.27;;;;;;;;;;5080090;28;20040;-78
2021/01/18 05:56:17;;;;;;;54.88;9.43;;;;;;;;;;5088722;28;20083;-78
2021/01/18 05:58:43;;;;;;;49.28;10.38;;;;;;;;;;5076453;28;20044;-78
2021/01/18 06:01:10;;;;;;;52.75;10.02;;;;;;;;;;5070178;28;20033;-78
2021/01/18 06:03:36;;;;;;;52.78;10.70;;;;;;;;;;5080660;28;20041;-78
2021/01/18 06:06:02;;;;;;;34.58;10.82;;;;;;;;;;5067142;28;20047;-78
2021/01/18 06:08:29;;;;;;;45.80;11.10;;;;;;;;;;5075976;28;20040;-78
2021/01/18 06:10:57;;;;;;;42.60;11.77;;;;;;;;;;5070065;28;20045;-78
2021/01/18 06:13:25;;;;;;;53.30;11.98;;;;;;;;;;5076648;28;20040;-78
2021/01/18 06:16:09;;;;;;;51.97;12.43;;;;;;;;;;5073818;28;20037;-78
2021/01/18 06:18:36;;;;;;;46.22;12.23;;;;;;;;;;5082016;28;20455;-78
2021/01/18 06:21:04;;;;;;;50.08;11.40;;;;;;;;;;5088377;28;20062;-78
2021/01/18 06:23:30;;;;;;;38.95;12.18;;;;;;;;;;5085800;28;20048;-78
2021/01/18 06:25:57;;;;;;;48.58;11.73;;;;;;;;;;5073396;28;20519;-78
2021/01/18 06:28:25;;;;;;;61.78;15.40;;;;;;;;;;5084732;28;20048;-78
2021/01/18 06:30:55;;;;;;;51.92;13.27;;;;;;;;;;5083273;28;20036;-78
2021/01/18 06:33:21;;;;;;;43.38;10.70;;;;;;;;;;5075924;28;20044;-78
2021/01/18 06:35:48;;;;;;;56.63;12.25;;;;;;;;;;5082009;28;20157;-78
2021/01/18 06:38:21;;;;;;;54.92;11.43;;;;;;;;;;5081721;28;20048;-78
2021/01/18 06:40:56;;;;;;;60.63;12.27;;;;;;;;;;5083624;28;20593;-78
2021/01/18 06:43:23;;;;;;;45.20;12.68;;;;;;;;;;5083156;28;20040;-78
2021/01/18 06:45:50;;;;;;;47.75;10.63;;;;;;;;;;5111945;27;20051;-77
2021/01/18 06:48:16;;;;;;;44.42;10.90;;;;;;;;;;5079621;28;20036;-78
2021/01/18 06:50:42;;;;;;;42.08;11.00;;;;;;;;;;5074856;28;20047;-78
2021/01/18 06:53:16;;;;;;;55.45;13.45;;;;;;;;;;5088134;28;20111;-77
2021/01/18 06:55:55;;;;;;;57.65;13.30;;;;;;;;;;5079726;28;20432;-78
2021/01/18 06:58:32;;;;;;;43.80;10.80;;;;;;;;;;5084588;28;20040;-78
2021/01/18 07:00:59;;;;;;;60.80;13.15;;;;;;;;;;5078425;28;20040;-78
2021/01/18 07:03:38;;;;;;;58.05;13.27;;;;;;;;;;5084075;28;20130;-78
2021/01/18 07:06:22;;;;;;;48.55;11.45;;;;;;;;;;5079261;28;20047;-78
2021/01/18 07:08:52;;;;;;;53.78;13.38;;;;;;;;;;5073494;28;20044;-78
2021/01/18 07:11:19;;;;;;;61.90;15.68;;;;;;;;;;5075076;28;20145;-78
2021/01/18 07:13:48;;;;;;;47.83;12.57;;;;;;;;;;5082671;28;20115;-78
2021/01/18 07:16:17;;;;;;;50.75;12.13;;;;;;;;;;5080634;28;20078;-78
2021/01/18 07:18:45;;;;;;;45.88;14.77;;;;;;;;;;5076114;28;20036;-78
2021/01/18 07:21:17;;;;;;;53.00;12.57;;;;;;;;;;5083299;28;20040;-77
2021/01/18 07:23:49;;;;;;;58.53;12.45;;;;;;;;;;5087228;28;20062;-76
2021/01/18 07:26:37;;;;;;;69.85;15.15;;;;;;;;;;5076264;28;20044;-71
2021/01/18 07:29:05;;;;;;;52.80;14.18;;;;;;;;;;5077764;28;20040;-76
2021/01/18 07:31:33;;;;;;;51.03;12.90;;;;;;;;;;5077593;28;20065;-80
2021/01/18 07:34:00;;;;;;;55.20;12.20;;;;;;;;;;5078375;28;20049;-76
2021/01/18 07:36:28;;;;;;;65.25;12.90;;;;;;;;;;5080478;28;20048;-79
2021/01/18 07:38:55;;;;;;;51.33;14.30;;;;;;;;;;5097624;28;20414;-80
2021/01/18 07:41:30;;;;;;;53.80;14.00;;;;;;;;;;5088000;28;20071;-79
2021/01/18 07:43:57;;;;;;;59.58;13.50;;;;;;;;;;5090215;28;20044;-78
2021/01/18 07:46:36;;;;;;;44.22;13.20;;;;;;;;;;5090324;28;20040;-79
2021/01/18 07:49:34;;;;;;;54.30;12.18;;;;;;;;;;5090765;28;20509;-81
2021/01/18 07:52:13;;;;;;;54.97;14.13;;;;;;;;;;5087179;28;20043;-80
2021/01/18 07:54:39;;;;;;;34.95;11.18;;;;;;;;;;5093399;28;20098;-80
2021/01/18 07:57:23;;;;;;;50.45;12.05;;;;;;;;;;5092919;28;20044;-79
2021/01/18 07:59:49;;;;;;;43.22;12.27;;;;;;;;;;5089278;28;20055;-79
2021/01/18 08:02:23;;;;;;;50.13;11.93;;;;;;;;;;5091431;28;20084;-78
2021/01/18 08:04:50;;;;;;;38.42;11.80;;;;;;;;;;5096770;28;20089;-80
2021/01/18 08:07:16;;;;;;;54.40;12.80;;;;;;;;;;5090888;28;20040;-78
2021/01/18 08:09:42;;;;;;;53.45;12.25;;;;;;;;;;5091634;28;20055;-78
2021/01/18 08:12:27;;;;;;;59.45;12.93;;;;;;;;;;5090622;28;20039;-77
2021/01/18 08:14:53;;;;;;;53.67;11.40;;;;;;;;;;5091133;28;20055;-85
2021/01/18 08:17:20;;;;;;;52.75;10.68;;;;;;;;;;5096959;28;20055;-81
2021/01/18 08:20:05;;;;;;;50.72;12.10;;;;;;;;;;5095813;28;20039;-84
2021/01/18 08:22:32;;;;;;;48.28;11.25;;;;;;;;;;5096643;28;20032;-82
2021/01/18 08:24:58;;;;;;;43.45;10.43;;;;;;;;;;5089540;28;20045;-81
2021/01/18 08:27:47;;;;;;;48.13;10.90;;;;;;;;;;5087963;28;20114;-81
2021/01/18 08:30:29;;;;;;;45.00;10.80;;;;;;;;;;5091465;28;20040;-80
2021/01/18 08:32:58;;;;;;;48.88;10.85;;;;;;;;;;5089314;28;20116;-80
2021/01/18 08:35:28;;;;;;;46.13;12.27;;;;;;;;;;5090509;28;20102;-79
2021/01/18 08:38:04;;;;;;;41.65;10.95;;;;;;;;;;5092156;28;20048;-79
2021/01/18 08:40:33;;;;;;;34.63;10.23;;;;;;;;;;5090323;28;20048;-80
2021/01/18 08:43:00;;;;;;;56.70;11.30;;;;;;;;;;5088971;28;20097;-80
2021/01/18 08:45:28;;;;;;;49.78;11.65;;;;;;;;;;5093391;28;20043;-80
2021/01/18 08:47:56;;;;;;;49.60;12.98;;;;;;;;;;5090052;28;20214;-79
2021/01/18 08:50:29;;;;;;;37.13;10.25;;;;;;;;;;5088596;28;20063;-78
2021/01/18 08:52:57;;;;;;;44.03;10.10;;;;;;;;;;5080145;28;20040;-78
2021/01/18 08:55:29;;;;;;;49.35;11.35;;;;;;;;;;5085429;28;20040;-78
2021/01/18 08:57:58;;;;;;;46.33;9.60;;;;;;;;;;5089727;28;20141;-79
2021/01/18 09:00:25;;;;;;;44.33;10.65;;;;;;;;;;5073793;28;20079;-79
2021/01/18 09:02:51;;;;;;;43.25;9.18;;;;;;;;;;5085375;28;20047;-77
2021/01/18 09:05:18;;;;;;;43.65;10.65;;;;;;;;;;5095090;28;20047;-77
2021/01/18 09:07:45;;;;;;;48.85;9.57;;;;;;;;;;5088244;28;20048;-77
2021/01/18 09:10:12;;;;;;;42.15;10.18;;;;;;;;;;5088373;28;20039;-77
2021/01/18 09:12:40;;;;;;;57.10;10.05;;;;;;;;;;5087446;28;20075;-77
2021/01/18 09:15:07;;;;;;;40.13;7.88;;;;;;;;;;5089346;28;20183;-77
2021/01/18 09:17:34;;;;;;;45.22;10.00;;;;;;;;;;5088476;28;20135;-77
2021/01/18 09:20:04;;;;;;;34.72;8.45;;;;;;;;;;5087831;28;20086;-77
2021/01/18 09:22:31;;;;;;;43.13;8.57;;;;;;;;;;5091463;28;20162;-78
2021/01/18 09:24:57;;;;;;;47.20;8.50;;;;;;;;;;5091056;28;20049;-78
2021/01/18 09:27:24;;;;;;;49.65;9.10;;;;;;;;;;5090890;28;20088;-74
2021/01/18 09:30:06;;;;;;;44.67;8.98;;;;;;;;;;5096495;28;20059;-74
2021/01/18 09:32:33;;;;;;;33.33;7.63;;;;;;;;;;5096398;28;20089;-78
2021/01/18 09:35:17;;;;;;;40.17;8.38;;;;;;;;;;5094577;28;20040;-79
2021/01/18 09:37:46;;;;;;;38.35;6.57;;;;;;;;;;5092572;28;20036;-86
2021/01/18 09:40:12;;;;;;;47.22;7.95;;;;;;;;;;5094509;28;20458;-76
2021/01/18 09:42:39;;;;;;;44.05;6.93;;;;;;;;;;5094510;28;20058;-76
2021/01/18 09:45:08;;;;;;;57.40;8.00;;;;;;;;;;5091755;28;20094;-76
2021/01/18 09:47:34;;;;;;;46.80;7.05;;;;;;;;;;5094200;28;20648;-76
2021/01/18 09:50:09;;;;;;;38.90;6.72;;;;;;;;;;5096980;28;20059;-76
2021/01/18 09:52:38;;;;;;;37.63;6.50;;;;;;;;;;5091081;28;20047;-77
2021/01/18 09:55:08;;;;;;;39.47;6.13;;;;;;;;;;5086487;28;20392;-76
2021/01/18 09:57:37;;;;;;;43.63;7.35;;;;;;;;;;5091512;28;20052;-76
2021/01/18 10:00:04;;;;;;;47.90;7.93;;;;;;;;;;5090228;28;20128;-75
2021/01/18 10:02:30;;;;;;;34.45;5.47;;;;;;;;;;5095832;28;20347;-76
2021/01/18 10:04:57;;;;;;;44.03;7.95;;;;;;;;;;5093342;28;20109;-75
2021/01/18 10:07:24;;;;;;;31.80;6.15;;;;;;;;;;5098839;28;20050;-76
2021/01/18 10:09:55;;;;;;;51.15;7.32;;;;;;;;;;5094504;28;20119;-76
2021/01/18 10:12:24;;;;;;;30.77;5.45;;;;;;;;;;5108754;27;20040;-75
2021/01/18 10:14:54;;;;;;;42.97;5.10;;;;;;;;;;5090764;28;20459;-76
2021/01/18 10:17:30;;;;;;;30.73;6.32;;;;;;;;;;5091270;28;20060;-76
2021/01/18 10:20:04;;;;;;;32.45;5.68;;;;;;;;;;5093285;28;20101;-76
2021/01/18 10:22:30;;;;;;;;;;;;;;;;;;5093655;28;20047;-76
2021/01/18 10:24:58;;;;;;;34.53;5.40;;;;;;;;;;5097734;28;19920;-76
2021/01/18 10:27:26;;;;;;;40.30;6.15;;;;;;;;;;5099192;28;20104;-76
2021/01/18 10:30:09;;;;;;;36.50;5.10;;;;;;;;;;5094068;28;20039;-76
2021/01/18 10:32:39;;;;;;;28.08;4.18;;;;;;;;;;5100391;28;20130;-76
2021/01/18 10:35:26;;;;;;;33.08;5.65;;;;;;;;;;5092737;28;20051;-76
2021/01/18 10:37:53;;;;;;;30.65;4.88;;;;;;;;;;5088057;28;20040;-76
2021/01/18 10:40:21;;;;;;;24.35;4.70;;;;;;;;;;5079066;28;20054;-76
2021/01/18 10:42:55;;;;;;;31.95;5.47;;;;;;;;;;5085419;28;20185;-77
2021/01/18 10:45:25;;;;;;;27.52;4.43;;;;;;;;;;5093554;28;20097;-76
2021/01/18 10:47:58;;;;;;;32.05;8.23;;;;;;;;;;5079697;28;20036;-75
2021/01/18 10:50:31;;;;;;;27.88;4.45;;;;;;;;;;5093613;28;20097;-76
2021/01/18 10:53:05;;;;;;;26.45;4.50;;;;;;;;;;5092491;28;20039;-76
2021/01/18 10:55:31;;;;;;;;;;;;;;;;;;5092068;28;20046;-72
2021/01/18 10:57:58;;;;;;;36.67;5.07;;;;;;;;;;5092396;28;19926;-76
2021/01/18 11:00:26;;;;;;;26.42;4.63;;;;;;;;;;5092054;28;20047;-76
2021/01/18 11:02:54;;;;;;;37.80;4.85;;;;;;;;;;5088882;28;20086;-76
2021/01/18 11:05:28;;;;;;;27.50;5.28;;;;;;;;;;5091819;28;20040;-75
2021/01/18 11:07:54;;;;;;;36.33;6.50;;;;;;;;;;5091423;28;20392;-76
2021/01/18 11:10:22;;;;;;;41.90;7.32;;;;;;;;;;5091851;28;20105;-78
2021/01/18 11:12:56;;;;;;;25.85;4.95;;;;;;;;;;5082259;28;20032;-75
2021/01/18 11:15:28;;;;;;;28.50;4.33;;;;;;;;;;5090800;28;20553;-76
2021/01/18 11:17:55;;;;;;;23.92;3.60;;;;;;;;;;5089378;28;20405;-76
2021/01/18 11:20:28;;;;;;;32.20;4.80;;;;;;;;;;5089156;28;20076;-83
2021/01/18 11:22:54;;;;;;;36.80;4.10;;;;;;;;;;5117006;27;20051;-75
2021/01/18 11:25:20;;;;;;;33.35;4.20;;;;;;;;;;5088470;28;20048;-78
2021/01/18 11:27:47;;;;;;;32.95;4.63;;;;;;;;;;5087772;28;20139;-76
2021/01/18 11:30:14;;;;;;;39.28;5.22;;;;;;;;;;5087567;28;20060;-75
2021/01/18 11:32:41;;;;;;;22.30;4.15;;;;;;;;;;5084684;28;20048;-76
2021/01/18 11:35:08;;;;;;;51.30;6.25;;;;;;;;;;5091482;28;20165;-77
2021/01/18 11:37:36;;;;;;;29.67;5.20;;;;;;;;;;5088141;28;20131;-76
2021/01/18 11:40:11;;;;;;;29.80;7.03;;;;;;;;;;5092239;28;20036;-76
2021/01/18 11:42:37;;;;;;;34.00;5.13;;;;;;;;;;5097325;28;20399;-76
2021/01/18 11:45:04;;;;;;;31.45;4.45;;;;;;;;;;5090737;28;20495;-76
2021/01/18 11:47:34;;;;;;;32.40;5.15;;;;;;;;;;5091400;28;20036;-76
2021/01/18 11:50:00;;;;;;;35.13;5.55;;;;;;;;;;5092644;28;20040;-76
2021/01/18 11:52:26;;;;;;;34.58;5.88;;;;;;;;;;5090605;28;20475;-76
2021/01/18 11:54:53;;;;;;;24.65;4.35;;;;;;;;;;5085541;28;20121;-77
2021/01/18 11:57:19;;;;;;;27.23;4.45;;;;;;;;;;5090587;28;20119;-75
2021/01/18 11:59:46;;;;;;;31.50;5.45;;;;;;;;;;5088234;28;20550;-76
2021/01/18 12:02:12;;;;;;;27.17;3.85;;;;;;;;;;5084620;28;20428;-76
2021/01/18 12:04:38;;;;;;;27.42;4.65;;;;;;;;;;5082916;28;20074;-78
2021/01/18 12:07:05;;;;;;;25.45;4.35;;;;;;;;;;5096954;28;20044;-77
2021/01/18 12:09:33;;;;;;;43.13;5.00;;;;;;;;;;5078390;28;20046;-78
2021/01/18 12:11:59;;;;;;;24.33;4.45;;;;;;;;;;5094395;27;20127;-75
2021/01/18 12:14:26;;;;;;;28.58;5.53;;;;;;;;;;5078720;28;20123;-77
2021/01/18 12:16:52;;;;;;;26.35;4.30;;;;;;;;;;5081236;28;20058;-78
2021/01/18 12:19:19;;;;;;;29.95;4.22;;;;;;;;;;5088123;28;20505;-75
2021/01/18 12:21:45;;;;;;;25.17;4.88;;;;;;;;;;5085621;28;20041;-76
2021/01/18 12:24:12;;;;;;;34.05;4.28;;;;;;;;;;5091155;28;20052;-76
2021/01/18 12:26:38;;;;;;;34.25;4.95;;;;;;;;;;5082692;28;20432;-76
2021/01/18 12:29:04;;;;;;;30.35;5.72;;;;;;;;;;5079985;28;20071;-76
2021/01/18 12:31:34;;;;;;;26.00;4.60;;;;;;;;;;5078018;28;20040;-76
2021/01/18 12:34:01;;;;;;;25.95;4.70;;;;;;;;;;5077154;28;20036;-76
2021/01/18 12:36:28;;;;;;;28.05;6.03;;;;;;;;;;5077607;28;20518;-77
2021/01/18 12:38:54;;;;;;;29.52;4.82;;;;;;;;;;5080128;28;20055;-76
2021/01/18 12:41:20;;;;;;;29.55;4.43;;;;;;;;;;5083587;28;20032;-76
2021/01/18 12:43:47;;;;;;;25.85;5.07;;;;;;;;;;5088306;28;20486;-76
2021/01/18 12:46:17;;;;;;;24.13;4.28;;;;;;;;;;5087099;28;20036;-76
2021/01/18 12:48:44;;;;;;;16.48;3.33;;;;;;;;;;5087264;28;20081;-76
2021/01/18 12:51:14;;;;;;;27.88;4.55;;;;;;;;;;5089484;28;20060;-76
2021/01/18 12:53:43;;;;;;;31.27;4.93;;;;;;;;;;5086405;28;20482;-76
2021/01/18 12:56:10;;;;;;;25.13;3.67;;;;;;;;;;5083274;28;20531;-76
2021/01/18 12:58:36;;;;;;;23.63;4.78;;;;;;;;;;5087384;28;20040;-76
2021/01/18 13:01:02;;;;;;;24.45;3.65;;;;;;;;;;5083781;28;20467;-75
2021/01/18 13:03:29;;;;;;;22.77;3.55;;;;;;;;;;5087130;28;20047;-75
2021/01/18 13:05:55;;;;;;;21.42;3.90;;;;;;;;;;5088244;28;20045;-76
2021/01/18 13:08:21;;;;;;;19.13;3.55;;;;;;;;;;5089770;28;20040;-76
2021/01/18 13:10:48;;;;;;;27.38;6.13;;;;;;;;;;5090689;28;20075;-77
2021/01/18 13:13:14;;;;;;;19.55;3.53;;;;;;;;;;5075048;28;20090;-78
2021/01/18 13:15:41;;;;;;;21.15;3.13;;;;;;;;;;5080958;28;20070;-78
2021/01/18 13:18:07;;;;;;;18.92;3.40;;;;;;;;;;5078469;28;20047;-77
2021/01/18 13:20:34;;;;;;;16.80;3.10;;;;;;;;;;5082819;28;20074;-77
2021/01/18 13:23:00;;;;;;;16.27;3.08;;;;;;;;;;5073268;28;20048;-76
2021/01/18 13:25:27;;;;;;;19.65;3.10;;;;;;;;;;5087489;28;20380;-77
2021/01/18 13:27:53;;;;;;;21.92;3.15;;;;;;;;;;5089356;28;20040;-74
2021/01/18 13:30:20;;;;;;;22.35;3.90;;;;;;;;;;5075412;28;20442;-74
2021/01/18 13:32:48;;;;;;;21.77;3.47;;;;;;;;;;5085055;28;20064;-77
2021/01/18 13:35:16;;;;;;;25.48;3.90;;;;;;;;;;5085161;28;20047;-78
2021/01/18 13:37:42;;;;;;;16.98;3.17;;;;;;;;;;5085282;28;20380;-76
2021/01/18 13:40:14;;;;;;;25.23;3.47;;;;;;;;;;5085220;28;20048;-77
2021/01/18 13:42:41;;;;;;;16.45;3.35;;;;;;;;;;5083018;28;20392;-77
2021/01/18 13:45:08;;;;;;;15.48;3.03;;;;;;;;;;5090733;28;20070;-79
2021/01/18 13:47:35;;;;;;;12.40;3.15;;;;;;;;;;5090586;28;20127;-76
2021/01/18 13:50:03;;;;;;;16.35;3.58;;;;;;;;;;5091375;28;20151;-77
2021/01/18 13:52:32;;;;;;;17.80;3.30;;;;;;;;;;5094657;28;20116;-77
2021/01/18 13:54:59;;;;;;;22.48;3.13;;;;;;;;;;5095748;28;20040;-77
2021/01/18 13:57:25;;;;;;;21.45;3.13;;;;;;;;;;5092594;28;20071;-76
2021/01/18 13:59:51;;;;;;;20.17;3.28;;;;;;;;;;5093693;28;20407;-77
2021/01/18 14:02:17;;;;;;;22.13;2.92;;;;;;;;;;5092189;28;20032;-77
2021/01/18 14:04:44;;;;;;;21.65;3.33;;;;;;;;;;5093376;28;20046;-77
2021/01/18 14:07:10;;;;;;;20.90;3.30;;;;;;;;;;5092249;28;20044;-77
2021/01/18 14:09:37;;;;;;;25.98;3.97;;;;;;;;;;5093210;28;20055;-77
2021/01/18 14:12:07;;;;;;;26.10;3.45;;;;;;;;;;5096100;28;20032;-76
2021/01/18 14:14:33;;;;;;;32.80;5.03;;;;;;;;;;5097411;28;20045;-77
2021/01/18 14:17:01;;;;;;;24.05;3.40;;;;;;;;;;5093164;28;20036;-77
2021/01/18 14:19:28;;;;;;;28.77;3.90;;;;;;;;;;5092359;28;20072;-77
2021/01/18 14:21:54;;;;;;;24.70;4.72;;;;;;;;;;5093156;28;20569;-77
2021/01/18 14:24:21;;;;;;;22.98;3.83;;;;;;;;;;5088047;28;20079;-76
2021/01/18 14:26:47;;;;;;;20.45;3.72;;;;;;;;;;5090861;28;20036;-77
2021/01/18 14:29:14;;;;;;;31.02;4.95;;;;;;;;;;5093315;28;20487;-77
2021/01/18 14:31:40;;;;;;;18.40;3.47;;;;;;;;;;5096348;28;20043;-78
2021/01/18 14:34:07;;;;;;;25.63;4.05;;;;;;;;;;5092478;28;20056;-78
2021/01/18 14:36:35;;;;;;;33.65;4.32;;;;;;;;;;5092478;28;20047;-77